sensor_id;sensor_type;location;lat;lon;timestamp;P1;durP1;ratioP1;P2;durP2;ratioP2
82292;SDS011;71892;14.836;105.234;2024-02-15T00:01:03;80.30;;;51.03;;
82292;SDS011;71892;14.836;105.234;2024-02-15T00:03:30;64.13;;;41.20;;
82292;SDS011;71892;14.836;105.234;2024-02-15T00:05:57;78.55;;;47.22;;
82292;SDS011;71892;14.836;105.234;2024-02-15T00:08:24;72.53;;;42.65;;
82292;SDS011;71892;14.836;105.234;2024-02-15T00:10:52;67.97;;;38.83;;
82292;SDS011;71892;14.836;105.234;2024-02-15T00:13:19;68.35;;;39.78;;
82292;SDS011;71892;14.836;105.234;2024-02-15T00:15:45;62.90;;;38.17;;
82292;SDS011;71892;14.836;105.234;2024-02-15T00:18:15;67.55;;;40.50;;
82292;SDS011;71892;14.836;105.234;2024-02-15T00:20:42;69.68;;;40.38;;
82292;SDS011;71892;14.836;105.234;2024-02-15T00:23:09;65.93;;;39.03;;
82292;SDS011;71892;14.836;105.234;2024-02-15T00:25:36;58.88;;;34.85;;
82292;SDS011;71892;14.836;105.234;2024-02-15T00:28:02;59.92;;;34.35;;
82292;SDS011;71892;14.836;105.234;2024-02-15T00:30:29;61.60;;;34.85;;
82292;SDS011;71892;14.836;105.234;2024-02-15T00:32:56;67.50;;;33.90;;
82292;SDS011;71892;14.836;105.234;2024-02-15T00:35:23;59.88;;;31.75;;
82292;SDS011;71892;14.836;105.234;2024-02-15T00:37:49;52.25;;;30.63;;
82292;SDS011;71892;14.836;105.234;2024-02-15T00:40:16;59.03;;;30.10;;
82292;SDS011;71892;14.836;105.234;2024-02-15T00:42:43;51.40;;;28.55;;
82292;SDS011;71892;14.836;105.234;2024-02-15T00:45:09;46.95;;;28.00;;
82292;SDS011;71892;14.836;105.234;2024-02-15T00:47:37;45.72;;;23.27;;
82292;SDS011;71892;14.836;105.234;2024-02-15T00:50:04;38.95;;;20.30;;
82292;SDS011;71892;14.836;105.234;2024-02-15T00:52:30;36.03;;;18.48;;
82292;SDS011;71892;14.836;105.234;2024-02-15T00:54:57;34.50;;;21.27;;
82292;SDS011;71892;14.836;105.234;2024-02-15T00:57:23;33.08;;;19.10;;
82292;SDS011;71892;14.836;105.234;2024-02-15T00:59:50;34.47;;;19.58;;
82292;SDS011;71892;14.836;105.234;2024-02-15T01:02:17;29.38;;;18.25;;
82292;SDS011;71892;14.836;105.234;2024-02-15T01:04:43;36.30;;;18.52;;
82292;SDS011;71892;14.836;105.234;2024-02-15T01:07:13;35.03;;;18.20;;
82292;SDS011;71892;14.836;105.234;2024-02-15T01:09:39;29.58;;;17.38;;
82292;SDS011;71892;14.836;105.234;2024-02-15T01:12:06;28.65;;;17.30;;
82292;SDS011;71892;14.836;105.234;2024-02-15T01:14:32;35.08;;;16.30;;
82292;SDS011;71892;14.836;105.234;2024-02-15T01:16:59;24.85;;;15.90;;
82292;SDS011;71892;14.836;105.234;2024-02-15T01:19:26;31.42;;;15.90;;
82292;SDS011;71892;14.836;105.234;2024-02-15T01:21:53;23.33;;;14.90;;
82292;SDS011;71892;14.836;105.234;2024-02-15T01:24:19;33.13;;;14.75;;
82292;SDS011;71892;14.836;105.234;2024-02-15T01:26:45;27.80;;;14.63;;
82292;SDS011;71892;14.836;105.234;2024-02-15T01:29:13;25.50;;;14.35;;
82292;SDS011;71892;14.836;105.234;2024-02-15T01:31:39;21.23;;;13.60;;
82292;SDS011;71892;14.836;105.234;2024-02-15T01:34:06;23.65;;;13.57;;
82292;SDS011;71892;14.836;105.234;2024-02-15T01:36:32;25.63;;;12.65;;
82292;SDS011;71892;14.836;105.234;2024-02-15T01:38:59;22.17;;;13.10;;
82292;SDS011;71892;14.836;105.234;2024-02-15T01:41:25;23.05;;;13.15;;
82292;SDS011;71892;14.836;105.234;2024-02-15T01:43:51;20.38;;;12.82;;
82292;SDS011;71892;14.836;105.234;2024-02-15T01:46:18;23.55;;;12.27;;
82292;SDS011;71892;14.836;105.234;2024-02-15T01:48:47;25.73;;;12.88;;
82292;SDS011;71892;14.836;105.234;2024-02-15T01:51:13;18.88;;;11.93;;
82292;SDS011;71892;14.836;105.234;2024-02-15T01:53:42;22.70;;;11.77;;
82292;SDS011;71892;14.836;105.234;2024-02-15T01:56:10;22.45;;;12.20;;
82292;SDS011;71892;14.836;105.234;2024-02-15T01:58:39;21.52;;;11.95;;
82292;SDS011;71892;14.836;105.234;2024-02-15T02:01:07;23.02;;;12.80;;
82292;SDS011;71892;14.836;105.234;2024-02-15T02:03:34;22.58;;;11.95;;
82292;SDS011;71892;14.836;105.234;2024-02-15T02:06:01;21.60;;;12.52;;
82292;SDS011;71892;14.836;105.234;2024-02-15T02:08:28;24.02;;;11.82;;
82292;SDS011;71892;14.836;105.234;2024-02-15T02:10:55;21.52;;;11.10;;
82292;SDS011;71892;14.836;105.234;2024-02-15T02:13:22;25.80;;;11.63;;
82292;SDS011;71892;14.836;105.234;2024-02-15T02:15:49;20.92;;;10.43;;
82292;SDS011;71892;14.836;105.234;2024-02-15T02:18:16;21.42;;;10.88;;
82292;SDS011;71892;14.836;105.234;2024-02-15T02:20:43;21.10;;;11.27;;
82292;SDS011;71892;14.836;105.234;2024-02-15T02:23:14;18.08;;;10.45;;
82292;SDS011;71892;14.836;105.234;2024-02-15T02:25:41;22.50;;;10.85;;
82292;SDS011;71892;14.836;105.234;2024-02-15T02:28:08;19.08;;;10.27;;
82292;SDS011;71892;14.836;105.234;2024-02-15T02:30:35;18.20;;;10.73;;
82292;SDS011;71892;14.836;105.234;2024-02-15T02:33:02;24.75;;;10.65;;
82292;SDS011;71892;14.836;105.234;2024-02-15T02:35:32;18.52;;;11.13;;
82292;SDS011;71892;14.836;105.234;2024-02-15T02:37:59;21.73;;;10.43;;
82292;SDS011;71892;14.836;105.234;2024-02-15T02:40:25;25.70;;;11.40;;
82292;SDS011;71892;14.836;105.234;2024-02-15T02:42:53;19.65;;;10.27;;
82292;SDS011;71892;14.836;105.234;2024-02-15T02:45:26;17.52;;;9.88;;
82292;SDS011;71892;14.836;105.234;2024-02-15T02:47:53;15.23;;;9.63;;
82292;SDS011;71892;14.836;105.234;2024-02-15T02:50:20;21.23;;;10.35;;
82292;SDS011;71892;14.836;105.234;2024-02-15T02:52:50;16.00;;;9.82;;
82292;SDS011;71892;14.836;105.234;2024-02-15T02:55:17;15.00;;;9.27;;
82292;SDS011;71892;14.836;105.234;2024-02-15T02:57:43;18.33;;;9.30;;
82292;SDS011;71892;14.836;105.234;2024-02-15T03:00:11;20.77;;;9.73;;
82292;SDS011;71892;14.836;105.234;2024-02-15T03:02:43;18.33;;;10.00;;
82292;SDS011;71892;14.836;105.234;2024-02-15T03:05:10;19.60;;;9.95;;
82292;SDS011;71892;14.836;105.234;2024-02-15T03:07:37;25.23;;;10.27;;
82292;SDS011;71892;14.836;105.234;2024-02-15T03:10:04;15.77;;;9.82;;
82292;SDS011;71892;14.836;105.234;2024-02-15T03:12:36;20.60;;;10.15;;
82292;SDS011;71892;14.836;105.234;2024-02-15T03:15:03;25.65;;;9.90;;
82292;SDS011;71892;14.836;105.234;2024-02-15T03:17:39;21.27;;;9.55;;
82292;SDS011;71892;14.836;105.234;2024-02-15T03:20:06;22.40;;;11.23;;
82292;SDS011;71892;14.836;105.234;2024-02-15T03:22:50;20.67;;;10.65;;
82292;SDS011;71892;14.836;105.234;2024-02-15T03:25:18;19.55;;;10.93;;
82292;SDS011;71892;14.836;105.234;2024-02-15T03:27:56;23.33;;;10.23;;
82292;SDS011;71892;14.836;105.234;2024-02-15T03:30:24;17.58;;;9.52;;
82292;SDS011;71892;14.836;105.234;2024-02-15T03:32:52;20.35;;;10.57;;
82292;SDS011;71892;14.836;105.234;2024-02-15T03:35:20;19.98;;;9.40;;
82292;SDS011;71892;14.836;105.234;2024-02-15T03:37:51;15.48;;;9.27;;
82292;SDS011;71892;14.836;105.234;2024-02-15T03:40:18;47.40;;;11.35;;
82292;SDS011;71892;14.836;105.234;2024-02-15T03:42:49;19.85;;;9.32;;
82292;SDS011;71892;14.836;105.234;2024-02-15T03:45:16;17.42;;;9.43;;
82292;SDS011;71892;14.836;105.234;2024-02-15T03:47:43;20.50;;;11.48;;
82292;SDS011;71892;14.836;105.234;2024-02-15T03:50:09;18.20;;;9.90;;
82292;SDS011;71892;14.836;105.234;2024-02-15T03:52:36;18.67;;;10.27;;
82292;SDS011;71892;14.836;105.234;2024-02-15T03:55:06;22.38;;;10.07;;
82292;SDS011;71892;14.836;105.234;2024-02-15T03:57:33;17.40;;;9.88;;
82292;SDS011;71892;14.836;105.234;2024-02-15T04:00:06;17.95;;;10.10;;
82292;SDS011;71892;14.836;105.234;2024-02-15T04:02:35;18.20;;;9.95;;
82292;SDS011;71892;14.836;105.234;2024-02-15T04:05:02;17.73;;;10.10;;
82292;SDS011;71892;14.836;105.234;2024-02-15T04:07:30;18.42;;;10.30;;
82292;SDS011;71892;14.836;105.234;2024-02-15T04:09:56;18.42;;;11.10;;
82292;SDS011;71892;14.836;105.234;2024-02-15T04:12:24;15.38;;;10.55;;
82292;SDS011;71892;14.836;105.234;2024-02-15T04:14:52;16.85;;;11.15;;
82292;SDS011;71892;14.836;105.234;2024-02-15T04:17:20;21.27;;;11.70;;
82292;SDS011;71892;14.836;105.234;2024-02-15T04:19:47;16.92;;;10.68;;
82292;SDS011;71892;14.836;105.234;2024-02-15T04:22:19;20.02;;;11.95;;
82292;SDS011;71892;14.836;105.234;2024-02-15T04:24:45;19.75;;;11.50;;
82292;SDS011;71892;14.836;105.234;2024-02-15T04:27:12;25.02;;;11.57;;
82292;SDS011;71892;14.836;105.234;2024-02-15T04:29:41;17.38;;;10.52;;
82292;SDS011;71892;14.836;105.234;2024-02-15T04:32:09;15.10;;;11.63;;
82292;SDS011;71892;14.836;105.234;2024-02-15T04:34:37;21.42;;;11.75;;
82292;SDS011;71892;14.836;105.234;2024-02-15T04:37:04;19.77;;;11.75;;
82292;SDS011;71892;14.836;105.234;2024-02-15T04:39:33;20.02;;;12.15;;
82292;SDS011;71892;14.836;105.234;2024-02-15T04:42:01;19.73;;;12.63;;
82292;SDS011;71892;14.836;105.234;2024-02-15T04:44:30;19.17;;;10.43;;
82292;SDS011;71892;14.836;105.234;2024-02-15T04:47:00;23.17;;;12.20;;
82292;SDS011;71892;14.836;105.234;2024-02-15T04:49:30;18.30;;;12.20;;
82292;SDS011;71892;14.836;105.234;2024-02-15T04:51:57;20.00;;;11.27;;
82292;SDS011;71892;14.836;105.234;2024-02-15T04:54:23;18.63;;;11.73;;
82292;SDS011;71892;14.836;105.234;2024-02-15T04:56:51;17.77;;;10.55;;
82292;SDS011;71892;14.836;105.234;2024-02-15T04:59:19;18.67;;;12.55;;
82292;SDS011;71892;14.836;105.234;2024-02-15T05:01:49;24.23;;;13.25;;
82292;SDS011;71892;14.836;105.234;2024-02-15T05:04:17;19.40;;;11.65;;
82292;SDS011;71892;14.836;105.234;2024-02-15T05:06:43;17.48;;;11.30;;
82292;SDS011;71892;14.836;105.234;2024-02-15T05:09:10;20.90;;;12.50;;
82292;SDS011;71892;14.836;105.234;2024-02-15T05:11:37;17.77;;;11.90;;
82292;SDS011;71892;14.836;105.234;2024-02-15T05:14:07;19.83;;;12.10;;
82292;SDS011;71892;14.836;105.234;2024-02-15T05:16:36;20.13;;;11.80;;
82292;SDS011;71892;14.836;105.234;2024-02-15T05:19:08;22.33;;;12.10;;
82292;SDS011;71892;14.836;105.234;2024-02-15T05:21:38;25.33;;;12.07;;
82292;SDS011;71892;14.836;105.234;2024-02-15T05:24:05;18.85;;;12.50;;
82292;SDS011;71892;14.836;105.234;2024-02-15T05:26:31;22.02;;;12.90;;
82292;SDS011;71892;14.836;105.234;2024-02-15T05:28:57;21.98;;;13.68;;
82292;SDS011;71892;14.836;105.234;2024-02-15T05:31:24;19.88;;;12.88;;
82292;SDS011;71892;14.836;105.234;2024-02-15T05:33:53;18.77;;;13.52;;
82292;SDS011;71892;14.836;105.234;2024-02-15T05:36:20;19.83;;;13.65;;
82292;SDS011;71892;14.836;105.234;2024-02-15T05:38:48;34.30;;;13.98;;
82292;SDS011;71892;14.836;105.234;2024-02-15T05:41:19;21.15;;;12.25;;
82292;SDS011;71892;14.836;105.234;2024-02-15T05:43:46;18.38;;;12.52;;
82292;SDS011;71892;14.836;105.234;2024-02-15T05:46:18;19.63;;;12.65;;
82292;SDS011;71892;14.836;105.234;2024-02-15T05:48:48;19.40;;;12.70;;
82292;SDS011;71892;14.836;105.234;2024-02-15T05:51:15;17.98;;;12.73;;
82292;SDS011;71892;14.836;105.234;2024-02-15T05:53:41;19.40;;;13.18;;
82292;SDS011;71892;14.836;105.234;2024-02-15T05:56:09;20.83;;;13.05;;
82292;SDS011;71892;14.836;105.234;2024-02-15T05:58:39;20.20;;;12.57;;
82292;SDS011;71892;14.836;105.234;2024-02-15T06:01:06;24.58;;;14.30;;
82292;SDS011;71892;14.836;105.234;2024-02-15T06:03:37;26.27;;;14.00;;
82292;SDS011;71892;14.836;105.234;2024-02-15T06:06:05;21.60;;;14.32;;
82292;SDS011;71892;14.836;105.234;2024-02-15T06:08:32;24.27;;;15.30;;
82292;SDS011;71892;14.836;105.234;2024-02-15T06:10:59;20.10;;;14.68;;
82292;SDS011;71892;14.836;105.234;2024-02-15T06:13:26;27.65;;;15.15;;
82292;SDS011;71892;14.836;105.234;2024-02-15T06:15:53;61.05;;;17.95;;
82292;SDS011;71892;14.836;105.234;2024-02-15T06:18:20;25.92;;;14.88;;
82292;SDS011;71892;14.836;105.234;2024-02-15T06:20:49;24.75;;;15.63;;
82292;SDS011;71892;14.836;105.234;2024-02-15T06:23:17;23.92;;;15.50;;
82292;SDS011;71892;14.836;105.234;2024-02-15T06:25:44;21.60;;;14.73;;
82292;SDS011;71892;14.836;105.234;2024-02-15T06:28:13;20.98;;;15.07;;
82292;SDS011;71892;14.836;105.234;2024-02-15T06:31:00;22.25;;;15.32;;
82292;SDS011;71892;14.836;105.234;2024-02-15T06:33:44;24.02;;;16.92;;
82292;SDS011;71892;14.836;105.234;2024-02-15T06:36:29;24.77;;;16.15;;
82292;SDS011;71892;14.836;105.234;2024-02-15T06:39:13;27.45;;;17.15;;
82292;SDS011;71892;14.836;105.234;2024-02-15T06:41:57;26.40;;;16.38;;
82292;SDS011;71892;14.836;105.234;2024-02-15T06:44:24;23.38;;;16.73;;
82292;SDS011;71892;14.836;105.234;2024-02-15T06:46:50;22.05;;;15.77;;
82292;SDS011;71892;14.836;105.234;2024-02-15T06:49:17;22.38;;;16.13;;
82292;SDS011;71892;14.836;105.234;2024-02-15T06:51:43;26.63;;;18.20;;
82292;SDS011;71892;14.836;105.234;2024-02-15T06:54:12;28.75;;;17.33;;
82292;SDS011;71892;14.836;105.234;2024-02-15T06:56:39;27.25;;;17.83;;
82292;SDS011;71892;14.836;105.234;2024-02-15T06:59:06;24.90;;;18.00;;
82292;SDS011;71892;14.836;105.234;2024-02-15T07:01:32;21.70;;;15.98;;
82292;SDS011;71892;14.836;105.234;2024-02-15T07:04:03;27.98;;;17.83;;
82292;SDS011;71892;14.836;105.234;2024-02-15T07:06:30;40.40;;;18.02;;
82292;SDS011;71892;14.836;105.234;2024-02-15T07:08:57;25.63;;;17.65;;
82292;SDS011;71892;14.836;105.234;2024-02-15T07:11:23;25.05;;;16.83;;
82292;SDS011;71892;14.836;105.234;2024-02-15T07:13:49;34.03;;;17.85;;
82292;SDS011;71892;14.836;105.234;2024-02-15T07:16:19;24.35;;;17.02;;
82292;SDS011;71892;14.836;105.234;2024-02-15T07:18:46;23.88;;;17.73;;
82292;SDS011;71892;14.836;105.234;2024-02-15T07:21:12;30.25;;;19.17;;
82292;SDS011;71892;14.836;105.234;2024-02-15T07:23:42;23.73;;;17.15;;
82292;SDS011;71892;14.836;105.234;2024-02-15T07:26:08;29.08;;;18.75;;
82292;SDS011;71892;14.836;105.234;2024-02-15T07:28:37;22.92;;;17.45;;
82292;SDS011;71892;14.836;105.234;2024-02-15T07:31:04;26.40;;;18.45;;
82292;SDS011;71892;14.836;105.234;2024-02-15T07:33:32;25.48;;;16.52;;
82292;SDS011;71892;14.836;105.234;2024-02-15T07:36:00;23.00;;;15.80;;
82292;SDS011;71892;14.836;105.234;2024-02-15T07:38:27;24.48;;;16.45;;
82292;SDS011;71892;14.836;105.234;2024-02-15T07:40:55;28.13;;;16.00;;
82292;SDS011;71892;14.836;105.234;2024-02-15T07:43:21;22.08;;;16.88;;
82292;SDS011;71892;14.836;105.234;2024-02-15T07:45:49;26.10;;;17.42;;
82292;SDS011;71892;14.836;105.234;2024-02-15T07:48:15;31.63;;;18.98;;
82292;SDS011;71892;14.836;105.234;2024-02-15T07:50:42;25.38;;;17.17;;
82292;SDS011;71892;14.836;105.234;2024-02-15T07:53:09;25.08;;;16.30;;
82292;SDS011;71892;14.836;105.234;2024-02-15T07:55:37;29.65;;;16.73;;
82292;SDS011;71892;14.836;105.234;2024-02-15T07:58:03;24.75;;;15.60;;
82292;SDS011;71892;14.836;105.234;2024-02-15T08:00:30;23.73;;;16.10;;
82292;SDS011;71892;14.836;105.234;2024-02-15T08:02:56;25.02;;;16.02;;
82292;SDS011;71892;14.836;105.234;2024-02-15T08:05:24;21.35;;;16.02;;
82292;SDS011;71892;14.836;105.234;2024-02-15T08:07:50;23.75;;;15.73;;
82292;SDS011;71892;14.836;105.234;2024-02-15T08:10:22;25.30;;;15.23;;
82292;SDS011;71892;14.836;105.234;2024-02-15T08:12:49;19.45;;;15.15;;
82292;SDS011;71892;14.836;105.234;2024-02-15T08:15:18;19.88;;;14.73;;
82292;SDS011;71892;14.836;105.234;2024-02-15T08:17:44;24.35;;;17.13;;
82292;SDS011;71892;14.836;105.234;2024-02-15T08:20:14;23.30;;;16.13;;
82292;SDS011;71892;14.836;105.234;2024-02-15T08:22:46;26.58;;;16.77;;
82292;SDS011;71892;14.836;105.234;2024-02-15T08:25:13;25.35;;;17.48;;
82292;SDS011;71892;14.836;105.234;2024-02-15T08:27:47;25.67;;;17.95;;
82292;SDS011;71892;14.836;105.234;2024-02-15T08:30:15;72.35;;;21.50;;
82292;SDS011;71892;14.836;105.234;2024-02-15T08:32:42;25.17;;;15.32;;
82292;SDS011;71892;14.836;105.234;2024-02-15T08:35:13;27.00;;;17.58;;
82292;SDS011;71892;14.836;105.234;2024-02-15T08:37:41;26.23;;;18.17;;
82292;SDS011;71892;14.836;105.234;2024-02-15T08:40:09;26.55;;;16.27;;
82292;SDS011;71892;14.836;105.234;2024-02-15T08:42:41;25.48;;;16.50;;
82292;SDS011;71892;14.836;105.234;2024-02-15T08:45:08;21.60;;;15.80;;
82292;SDS011;71892;14.836;105.234;2024-02-15T08:47:38;30.60;;;16.85;;
82292;SDS011;71892;14.836;105.234;2024-02-15T08:50:06;29.45;;;17.52;;
82292;SDS011;71892;14.836;105.234;2024-02-15T08:52:37;24.02;;;16.75;;
82292;SDS011;71892;14.836;105.234;2024-02-15T08:55:08;26.33;;;16.23;;
82292;SDS011;71892;14.836;105.234;2024-02-15T08:57:35;28.23;;;17.70;;
82292;SDS011;71892;14.836;105.234;2024-02-15T09:00:06;23.48;;;18.00;;
82292;SDS011;71892;14.836;105.234;2024-02-15T09:02:39;23.17;;;16.67;;
82292;SDS011;71892;14.836;105.234;2024-02-15T09:05:06;22.10;;;16.92;;
82292;SDS011;71892;14.836;105.234;2024-02-15T09:07:33;23.58;;;15.95;;
82292;SDS011;71892;14.836;105.234;2024-02-15T09:09:59;28.95;;;16.73;;
82292;SDS011;71892;14.836;105.234;2024-02-15T09:12:25;23.90;;;15.77;;
82292;SDS011;71892;14.836;105.234;2024-02-15T09:14:52;23.25;;;17.10;;
82292;SDS011;71892;14.836;105.234;2024-02-15T09:17:18;25.35;;;17.52;;
82292;SDS011;71892;14.836;105.234;2024-02-15T09:19:46;28.83;;;16.75;;
82292;SDS011;71892;14.836;105.234;2024-02-15T09:22:16;24.88;;;17.73;;
82292;SDS011;71892;14.836;105.234;2024-02-15T09:24:44;32.70;;;18.45;;
82292;SDS011;71892;14.836;105.234;2024-02-15T09:27:10;25.60;;;17.45;;
82292;SDS011;71892;14.836;105.234;2024-02-15T09:29:38;29.50;;;18.17;;
82292;SDS011;71892;14.836;105.234;2024-02-15T09:32:05;21.85;;;16.33;;
82292;SDS011;71892;14.836;105.234;2024-02-15T09:34:32;33.25;;;17.77;;
82292;SDS011;71892;14.836;105.234;2024-02-15T09:36:58;22.00;;;16.42;;
82292;SDS011;71892;14.836;105.234;2024-02-15T09:39:25;22.65;;;15.95;;
82292;SDS011;71892;14.836;105.234;2024-02-15T09:41:51;23.92;;;15.95;;
82292;SDS011;71892;14.836;105.234;2024-02-15T09:44:23;24.67;;;16.98;;
82292;SDS011;71892;14.836;105.234;2024-02-15T09:47:02;26.88;;;17.58;;
82292;SDS011;71892;14.836;105.234;2024-02-15T09:49:35;24.80;;;16.88;;
82292;SDS011;71892;14.836;105.234;2024-02-15T09:52:10;30.25;;;18.38;;
82292;SDS011;71892;14.836;105.234;2024-02-15T09:54:41;23.98;;;16.90;;
82292;SDS011;71892;14.836;105.234;2024-02-15T09:57:11;29.90;;;17.05;;
82292;SDS011;71892;14.836;105.234;2024-02-15T09:59:38;23.17;;;16.38;;
82292;SDS011;71892;14.836;105.234;2024-02-15T10:02:05;30.35;;;18.67;;
82292;SDS011;71892;14.836;105.234;2024-02-15T10:04:39;26.77;;;16.70;;
82292;SDS011;71892;14.836;105.234;2024-02-15T10:07:05;27.58;;;16.92;;
82292;SDS011;71892;14.836;105.234;2024-02-15T10:09:35;24.88;;;16.33;;
82292;SDS011;71892;14.836;105.234;2024-02-15T10:12:08;27.65;;;17.48;;
82292;SDS011;71892;14.836;105.234;2024-02-15T10:14:35;29.10;;;16.73;;
82292;SDS011;71892;14.836;105.234;2024-02-15T10:17:07;22.52;;;16.10;;
82292;SDS011;71892;14.836;105.234;2024-02-15T10:19:38;31.38;;;17.20;;
82292;SDS011;71892;14.836;105.234;2024-02-15T10:22:09;30.08;;;16.73;;
82292;SDS011;71892;14.836;105.234;2024-02-15T10:24:38;25.08;;;16.35;;
82292;SDS011;71892;14.836;105.234;2024-02-15T10:27:05;32.22;;;17.13;;
82292;SDS011;71892;14.836;105.234;2024-02-15T10:29:36;27.88;;;16.67;;
82292;SDS011;71892;14.836;105.234;2024-02-15T10:32:05;27.33;;;16.23;;
82292;SDS011;71892;14.836;105.234;2024-02-15T10:34:36;27.77;;;17.33;;
82292;SDS011;71892;14.836;105.234;2024-02-15T10:39:37;33.72;;;17.33;;
82292;SDS011;71892;14.836;105.234;2024-02-15T10:42:08;28.80;;;16.85;;
82292;SDS011;71892;14.836;105.234;2024-02-15T10:44:38;25.27;;;17.67;;
82292;SDS011;71892;14.836;105.234;2024-02-15T10:47:06;25.25;;;16.60;;
82292;SDS011;71892;14.836;105.234;2024-02-15T10:49:34;30.85;;;16.77;;
82292;SDS011;71892;14.836;105.234;2024-02-15T10:52:04;27.15;;;17.60;;
82292;SDS011;71892;14.836;105.234;2024-02-15T10:54:50;30.27;;;18.67;;
82292;SDS011;71892;14.836;105.234;2024-02-15T10:57:21;27.27;;;17.92;;
82292;SDS011;71892;14.836;105.234;2024-02-15T10:59:57;25.20;;;18.08;;
82292;SDS011;71892;14.836;105.234;2024-02-15T11:05:40;34.20;;;17.88;;
82292;SDS011;71892;14.836;105.234;2024-02-15T11:08:09;30.13;;;18.38;;
82292;SDS011;71892;14.836;105.234;2024-02-15T11:10:37;34.88;;;20.33;;
82292;SDS011;71892;14.836;105.234;2024-02-15T11:13:08;33.53;;;20.48;;
82292;SDS011;71892;14.836;105.234;2024-02-15T11:18:07;41.97;;;22.50;;
82292;SDS011;71892;14.836;105.234;2024-02-15T11:23:01;34.60;;;21.33;;
82292;SDS011;71892;14.836;105.234;2024-02-15T11:25:35;43.30;;;22.85;;
82292;SDS011;71892;14.836;105.234;2024-02-15T11:28:52;60.35;;;23.90;;
82292;SDS011;71892;14.836;105.234;2024-02-15T11:30:56;42.97;;;24.17;;
82292;SDS011;71892;14.836;105.234;2024-02-15T11:36:08;42.67;;;25.80;;
82292;SDS011;71892;14.836;105.234;2024-02-15T11:38:35;45.42;;;26.48;;
82292;SDS011;71892;14.836;105.234;2024-02-15T11:41:02;42.28;;;26.88;;
82292;SDS011;71892;14.836;105.234;2024-02-15T11:46:15;41.25;;;26.45;;
82292;SDS011;71892;14.836;105.234;2024-02-15T11:48:45;42.53;;;28.60;;
82292;SDS011;71892;14.836;105.234;2024-02-15T11:51:28;49.33;;;28.30;;
82292;SDS011;71892;14.836;105.234;2024-02-15T11:54:19;45.38;;;29.52;;
82292;SDS011;71892;14.836;105.234;2024-02-15T11:56:53;51.63;;;29.10;;
82292;SDS011;71892;14.836;105.234;2024-02-15T11:59:38;69.40;;;34.72;;
82292;SDS011;71892;14.836;105.234;2024-02-15T12:02:39;76.95;;;38.45;;
82292;SDS011;71892;14.836;105.234;2024-02-15T12:05:23;61.58;;;37.72;;
82292;SDS011;71892;14.836;105.234;2024-02-15T12:08:07;81.18;;;41.63;;
82292;SDS011;71892;14.836;105.234;2024-02-15T12:10:58;79.72;;;39.33;;
82292;SDS011;71892;14.836;105.234;2024-02-15T12:13:51;68.25;;;37.35;;
82292;SDS011;71892;14.836;105.234;2024-02-15T12:16:36;65.88;;;36.13;;
82292;SDS011;71892;14.836;105.234;2024-02-15T12:19:20;60.00;;;34.00;;
82292;SDS011;71892;14.836;105.234;2024-02-15T12:21:47;65.35;;;38.28;;
82292;SDS011;71892;14.836;105.234;2024-02-15T12:24:15;68.40;;;36.80;;
82292;SDS011;71892;14.836;105.234;2024-02-15T12:26:42;66.43;;;38.42;;
82292;SDS011;71892;14.836;105.234;2024-02-15T12:29:09;65.72;;;37.13;;
82292;SDS011;71892;14.836;105.234;2024-02-15T12:31:37;65.82;;;36.15;;
82292;SDS011;71892;14.836;105.234;2024-02-15T12:34:04;71.82;;;37.10;;
82292;SDS011;71892;14.836;105.234;2024-02-15T12:36:34;61.95;;;34.30;;
82292;SDS011;71892;14.836;105.234;2024-02-15T12:39:02;64.05;;;33.67;;
82292;SDS011;71892;14.836;105.234;2024-02-15T12:41:39;53.15;;;34.55;;
82292;SDS011;71892;14.836;105.234;2024-02-15T12:44:07;50.67;;;31.65;;
82292;SDS011;71892;14.836;105.234;2024-02-15T12:46:35;60.90;;;33.80;;
82292;SDS011;71892;14.836;105.234;2024-02-15T12:49:07;58.55;;;30.55;;
82292;SDS011;71892;14.836;105.234;2024-02-15T12:55:12;52.92;;;25.83;;
82292;SDS011;71892;14.836;105.234;2024-02-15T12:57:40;46.00;;;27.75;;
82292;SDS011;71892;14.836;105.234;2024-02-15T13:00:11;46.80;;;25.13;;
82292;SDS011;71892;14.836;105.234;2024-02-15T13:02:48;43.83;;;27.02;;
82292;SDS011;71892;14.836;105.234;2024-02-15T13:05:16;47.10;;;26.30;;
82292;SDS011;71892;14.836;105.234;2024-02-15T13:07:47;49.95;;;26.48;;
82292;SDS011;71892;14.836;105.234;2024-02-15T13:10:14;48.72;;;25.83;;
82292;SDS011;71892;14.836;105.234;2024-02-15T13:12:41;37.35;;;25.40;;
82292;SDS011;71892;14.836;105.234;2024-02-15T13:15:09;47.10;;;27.17;;
82292;SDS011;71892;14.836;105.234;2024-02-15T13:17:49;38.75;;;25.15;;
82292;SDS011;71892;14.836;105.234;2024-02-15T13:20:20;47.47;;;26.80;;
82292;SDS011;71892;14.836;105.234;2024-02-15T13:22:58;45.05;;;25.15;;
82292;SDS011;71892;14.836;105.234;2024-02-15T13:25:33;49.13;;;27.27;;
82292;SDS011;71892;14.836;105.234;2024-02-15T13:28:02;50.63;;;28.77;;
82292;SDS011;71892;14.836;105.234;2024-02-15T13:30:29;41.60;;;26.08;;
82292;SDS011;71892;14.836;105.234;2024-02-15T13:32:56;48.85;;;27.98;;
82292;SDS011;71892;14.836;105.234;2024-02-15T13:35:22;43.72;;;27.67;;
82292;SDS011;71892;14.836;105.234;2024-02-15T13:37:49;56.55;;;28.75;;
82292;SDS011;71892;14.836;105.234;2024-02-15T13:40:20;50.55;;;27.30;;
82292;SDS011;71892;14.836;105.234;2024-02-15T13:42:51;45.40;;;26.27;;
82292;SDS011;71892;14.836;105.234;2024-02-15T13:45:21;49.45;;;28.30;;
82292;SDS011;71892;14.836;105.234;2024-02-15T13:47:49;56.22;;;27.17;;
82292;SDS011;71892;14.836;105.234;2024-02-15T13:50:17;59.28;;;28.02;;
82292;SDS011;71892;14.836;105.234;2024-02-15T13:52:43;50.40;;;29.45;;
82292;SDS011;71892;14.836;105.234;2024-02-15T13:55:11;56.63;;;27.88;;
82292;SDS011;71892;14.836;105.234;2024-02-15T13:57:40;65.07;;;29.63;;
82292;SDS011;71892;14.836;105.234;2024-02-15T14:00:08;51.70;;;28.70;;
82292;SDS011;71892;14.836;105.234;2024-02-15T14:02:49;61.05;;;29.92;;
82292;SDS011;71892;14.836;105.234;2024-02-15T14:05:17;63.65;;;33.05;;
82292;SDS011;71892;14.836;105.234;2024-02-15T14:07:50;80.97;;;36.25;;
82292;SDS011;71892;14.836;105.234;2024-02-15T14:10:21;68.07;;;33.78;;
82292;SDS011;71892;14.836;105.234;2024-02-15T14:12:48;68.97;;;32.92;;
82292;SDS011;71892;14.836;105.234;2024-02-15T14:15:15;45.15;;;27.02;;
82292;SDS011;71892;14.836;105.234;2024-02-15T14:17:42;44.53;;;27.67;;
82292;SDS011;71892;14.836;105.234;2024-02-15T14:20:10;44.45;;;25.52;;
82292;SDS011;71892;14.836;105.234;2024-02-15T14:22:40;34.53;;;23.20;;
82292;SDS011;71892;14.836;105.234;2024-02-15T14:25:10;37.90;;;21.73;;
82292;SDS011;71892;14.836;105.234;2024-02-15T14:27:40;37.38;;;23.88;;